sensor_id;sensor_type;location;lat;lon;timestamp;temperature;humidity
11188;DHT22;5650;52.700;7.306;2023-04-25T00:00:26;8.10;99.90
11188;DHT22;5650;52.700;7.306;2023-04-25T00:02:53;8.00;99.90
11188;DHT22;5650;52.700;7.306;2023-04-25T00:05:22;8.00;99.90
11188;DHT22;5650;52.700;7.306;2023-04-25T00:08:01;7.90;99.90
11188;DHT22;5650;52.700;7.306;2023-04-25T00:10:32;7.90;99.90
11188;DHT22;5650;52.700;7.306;2023-04-25T00:12:59;7.80;99.90
11188;DHT22;5650;52.700;7.306;2023-04-25T00:15:28;7.80;99.90
11188;DHT22;5650;52.700;7.306;2023-04-25T00:17:56;7.80;99.90
11188;DHT22;5650;52.700;7.306;2023-04-25T00:20:26;7.70;99.90
11188;DHT22;5650;52.700;7.306;2023-04-25T00:22:53;7.70;99.90
11188;DHT22;5650;52.700;7.306;2023-04-25T00:25:20;7.60;99.90
11188;DHT22;5650;52.700;7.306;2023-04-25T00:27:49;7.60;99.90
11188;DHT22;5650;52.700;7.306;2023-04-25T00:30:19;7.50;99.90
11188;DHT22;5650;52.700;7.306;2023-04-25T00:32:46;7.50;99.90
11188;DHT22;5650;52.700;7.306;2023-04-25T00:35:14;7.40;99.90
11188;DHT22;5650;52.700;7.306;2023-04-25T00:37:41;7.40;99.90
11188;DHT22;5650;52.700;7.306;2023-04-25T00:40:09;7.40;99.90
11188;DHT22;5650;52.700;7.306;2023-04-25T00:42:36;7.40;99.90
11188;DHT22;5650;52.700;7.306;2023-04-25T00:45:13;7.40;99.90
11188;DHT22;5650;52.700;7.306;2023-04-25T00:47:43;7.40;99.90
11188;DHT22;5650;52.700;7.306;2023-04-25T00:50:16;7.40;99.90
11188;DHT22;5650;52.700;7.306;2023-04-25T00:52:46;7.30;99.90
11188;DHT22;5650;52.700;7.306;2023-04-25T00:55:13;7.30;99.90
11188;DHT22;5650;52.700;7.306;2023-04-25T00:57:42;7.30;99.90
11188;DHT22;5650;52.700;7.306;2023-04-25T01:00:11;7.30;99.90
11188;DHT22;5650;52.700;7.306;2023-04-25T01:02:40;7.30;99.90
11188;DHT22;5650;52.700;7.306;2023-04-25T01:05:07;7.20;99.90
11188;DHT22;5650;52.700;7.306;2023-04-25T01:07:35;7.20;99.90
11188;DHT22;5650;52.700;7.306;2023-04-25T01:10:09;7.20;99.90
11188;DHT22;5650;52.700;7.306;2023-04-25T01:12:36;7.20;99.90
11188;DHT22;5650;52.700;7.306;2023-04-25T01:15:07;7.20;99.90
11188;DHT22;5650;52.700;7.306;2023-04-25T01:17:35;7.10;99.90
11188;DHT22;5650;52.700;7.306;2023-04-25T01:20:07;7.10;99.90
11188;DHT22;5650;52.700;7.306;2023-04-25T01:22:36;7.00;99.90
11188;DHT22;5650;52.700;7.306;2023-04-25T01:25:04;7.00;99.90
11188;DHT22;5650;52.700;7.306;2023-04-25T01:27:35;6.90;99.90
11188;DHT22;5650;52.700;7.306;2023-04-25T01:30:03;7.00;99.90
11188;DHT22;5650;52.700;7.306;2023-04-25T01:32:31;7.00;99.90
11188;DHT22;5650;52.700;7.306;2023-04-25T01:35:04;7.00;99.90
11188;DHT22;5650;52.700;7.306;2023-04-25T01:37:46;7.00;99.90
11188;DHT22;5650;52.700;7.306;2023-04-25T01:40:17;6.90;99.90
11188;DHT22;5650;52.700;7.306;2023-04-25T01:42:45;6.90;99.90
11188;DHT22;5650;52.700;7.306;2023-04-25T01:45:16;6.90;99.90
11188;DHT22;5650;52.700;7.306;2023-04-25T01:47:46;6.80;99.90
11188;DHT22;5650;52.700;7.306;2023-04-25T01:50:16;6.80;99.90
11188;DHT22;5650;52.700;7.306;2023-04-25T01:52:45;6.70;99.90
11188;DHT22;5650;52.700;7.306;2023-04-25T01:55:15;6.70;99.90
11188;DHT22;5650;52.700;7.306;2023-04-25T01:57:42;6.70;99.90
11188;DHT22;5650;52.700;7.306;2023-04-25T02:00:11;6.80;99.90
11188;DHT22;5650;52.700;7.306;2023-04-25T02:02:47;6.80;99.90
11188;DHT22;5650;52.700;7.306;2023-04-25T02:05:16;6.80;99.90
11188;DHT22;5650;52.700;7.306;2023-04-25T02:07:51;6.80;99.90
11188;DHT22;5650;52.700;7.306;2023-04-25T02:10:18;6.80;99.90
11188;DHT22;5650;52.700;7.306;2023-04-25T02:12:45;6.80;99.90
11188;DHT22;5650;52.700;7.306;2023-04-25T02:15:15;6.80;99.90
11188;DHT22;5650;52.700;7.306;2023-04-25T02:17:42;6.80;99.90
11188;DHT22;5650;52.700;7.306;2023-04-25T02:20:11;6.80;99.90
11188;DHT22;5650;52.700;7.306;2023-04-25T02:22:38;6.80;99.90
11188;DHT22;5650;52.700;7.306;2023-04-25T02:25:08;6.80;99.90
11188;DHT22;5650;52.700;7.306;2023-04-25T02:27:38;6.80;99.90
11188;DHT22;5650;52.700;7.306;2023-04-25T02:30:06;6.90;99.90
11188;DHT22;5650;52.700;7.306;2023-04-25T02:32:36;6.80;99.90
11188;DHT22;5650;52.700;7.306;2023-04-25T02:35:04;6.80;99.90
11188;DHT22;5650;52.700;7.306;2023-04-25T02:37:39;6.80;99.90
11188;DHT22;5650;52.700;7.306;2023-04-25T02:40:12;6.70;99.90
11188;DHT22;5650;52.700;7.306;2023-04-25T02:42:39;6.70;99.90
11188;DHT22;5650;52.700;7.306;2023-04-25T02:45:07;6.70;99.90
11188;DHT22;5650;52.700;7.306;2023-04-25T02:47:34;6.70;99.90
11188;DHT22;5650;52.700;7.306;2023-04-25T02:50:02;6.70;99.90
11188;DHT22;5650;52.700;7.306;2023-04-25T02:52:30;6.70;99.90
11188;DHT22;5650;52.700;7.306;2023-04-25T02:54:57;6.70;99.90
11188;DHT22;5650;52.700;7.306;2023-04-25T02:57:25;6.80;99.90
11188;DHT22;5650;52.700;7.306;2023-04-25T02:59:55;6.80;99.90
11188;DHT22;5650;52.700;7.306;2023-04-25T03:02:23;6.80;99.90
11188;DHT22;5650;52.700;7.306;2023-04-25T03:04:50;6.80;99.90
11188;DHT22;5650;52.700;7.306;2023-04-25T03:07:20;6.80;99.90
11188;DHT22;5650;52.700;7.306;2023-04-25T03:09:47;6.80;99.90
11188;DHT22;5650;52.700;7.306;2023-04-25T03:12:15;6.80;99.90
11188;DHT22;5650;52.700;7.306;2023-04-25T03:14:44;6.80;99.90
11188;DHT22;5650;52.700;7.306;2023-04-25T03:17:14;6.80;99.90
11188;DHT22;5650;52.700;7.306;2023-04-25T03:19:44;6.80;99.90
11188;DHT22;5650;52.700;7.306;2023-04-25T03:22:11;6.90;99.90
11188;DHT22;5650;52.700;7.306;2023-04-25T03:24:38;6.90;99.90
11188;DHT22;5650;52.700;7.306;2023-04-25T03:27:08;6.90;99.90
11188;DHT22;5650;52.700;7.306;2023-04-25T03:29:35;6.90;99.90
11188;DHT22;5650;52.700;7.306;2023-04-25T03:32:09;6.90;99.90
11188;DHT22;5650;52.700;7.306;2023-04-25T03:34:39;6.80;99.90
11188;DHT22;5650;52.700;7.306;2023-04-25T03:37:13;6.80;99.90
11188;DHT22;5650;52.700;7.306;2023-04-25T03:39:43;6.80;99.90
11188;DHT22;5650;52.700;7.306;2023-04-25T03:42:10;6.80;99.90
11188;DHT22;5650;52.700;7.306;2023-04-25T03:44:37;6.90;99.90
11188;DHT22;5650;52.700;7.306;2023-04-25T03:47:07;6.90;99.90
11188;DHT22;5650;52.700;7.306;2023-04-25T03:49:42;6.90;99.90
11188;DHT22;5650;52.700;7.306;2023-04-25T03:52:13;6.90;99.90
11188;DHT22;5650;52.700;7.306;2023-04-25T03:54:40;6.90;99.90
11188;DHT22;5650;52.700;7.306;2023-04-25T03:57:13;6.90;99.90
11188;DHT22;5650;52.700;7.306;2023-04-25T03:59:40;6.90;99.90
11188;DHT22;5650;52.700;7.306;2023-04-25T04:02:12;6.90;99.90
11188;DHT22;5650;52.700;7.306;2023-04-25T04:04:39;6.90;99.90
11188;DHT22;5650;52.700;7.306;2023-04-25T04:07:09;6.90;99.90
11188;DHT22;5650;52.700;7.306;2023-04-25T04:09:37;6.90;99.90
11188;DHT22;5650;52.700;7.306;2023-04-25T04:12:07;6.90;99.90
11188;DHT22;5650;52.700;7.306;2023-04-25T04:14:34;6.90;99.90
11188;DHT22;5650;52.700;7.306;2023-04-25T04:17:01;6.80;99.90
11188;DHT22;5650;52.700;7.306;2023-04-25T04:19:30;6.80;99.90
11188;DHT22;5650;52.700;7.306;2023-04-25T04:21:57;6.80;99.90
11188;DHT22;5650;52.700;7.306;2023-04-25T04:24:24;6.80;99.90
11188;DHT22;5650;52.700;7.306;2023-04-25T04:26:51;6.80;99.90
11188;DHT22;5650;52.700;7.306;2023-04-25T04:29:18;6.80;99.90
11188;DHT22;5650;52.700;7.306;2023-04-25T04:31:49;6.80;99.90
11188;DHT22;5650;52.700;7.306;2023-04-25T04:34:16;6.80;99.90
11188;DHT22;5650;52.700;7.306;2023-04-25T04:36:46;6.80;99.90
11188;DHT22;5650;52.700;7.306;2023-04-25T04:39:13;6.80;99.90
11188;DHT22;5650;52.700;7.306;2023-04-25T04:41:41;6.80;99.90
11188;DHT22;5650;52.700;7.306;2023-04-25T04:44:08;6.80;99.90
11188;DHT22;5650;52.700;7.306;2023-04-25T04:46:35;6.90;99.90
11188;DHT22;5650;52.700;7.306;2023-04-25T04:49:07;6.90;99.90
11188;DHT22;5650;52.700;7.306;2023-04-25T04:51:34;6.90;99.90
11188;DHT22;5650;52.700;7.306;2023-04-25T04:54:03;7.00;99.90
11188;DHT22;5650;52.700;7.306;2023-04-25T04:56:31;6.90;99.90
11188;DHT22;5650;52.700;7.306;2023-04-25T04:58:58;7.00;99.90
11188;DHT22;5650;52.700;7.306;2023-04-25T05:01:27;7.00;99.90
11188;DHT22;5650;52.700;7.306;2023-04-25T05:03:55;7.00;99.90
11188;DHT22;5650;52.700;7.306;2023-04-25T05:06:26;7.00;99.90
11188;DHT22;5650;52.700;7.306;2023-04-25T05:08:54;7.10;99.90
11188;DHT22;5650;52.700;7.306;2023-04-25T05:11:23;7.10;99.90
11188;DHT22;5650;52.700;7.306;2023-04-25T05:13:52;7.20;99.90
11188;DHT22;5650;52.700;7.306;2023-04-25T05:16:19;7.20;99.90
11188;DHT22;5650;52.700;7.306;2023-04-25T05:18:48;7.20;99.90
11188;DHT22;5650;52.700;7.306;2023-04-25T05:21:15;7.20;99.90
11188;DHT22;5650;52.700;7.306;2023-04-25T05:23:42;7.30;99.90
11188;DHT22;5650;52.700;7.306;2023-04-25T05:26:10;7.30;99.90
11188;DHT22;5650;52.700;7.306;2023-04-25T05:28:47;7.30;99.90
11188;DHT22;5650;52.700;7.306;2023-04-25T05:31:14;7.40;99.90
11188;DHT22;5650;52.700;7.306;2023-04-25T05:33:44;7.50;99.90
11188;DHT22;5650;52.700;7.306;2023-04-25T05:36:14;7.50;99.90
11188;DHT22;5650;52.700;7.306;2023-04-25T05:38:42;8.10;99.90
11188;DHT22;5650;52.700;7.306;2023-04-25T05:41:12;9.00;99.90
11188;DHT22;5650;52.700;7.306;2023-04-25T05:43:39;9.90;99.90
11188;DHT22;5650;52.700;7.306;2023-04-25T05:46:12;10.80;99.90
11188;DHT22;5650;52.700;7.306;2023-04-25T05:48:39;11.30;99.90
11188;DHT22;5650;52.700;7.306;2023-04-25T05:51:06;11.90;99.90
11188;DHT22;5650;52.700;7.306;2023-04-25T05:53:34;12.40;99.90
11188;DHT22;5650;52.700;7.306;2023-04-25T05:56:01;12.80;99.90
11188;DHT22;5650;52.700;7.306;2023-04-25T05:58:41;12.80;99.90
11188;DHT22;5650;52.700;7.306;2023-04-25T06:01:15;13.10;99.90
11188;DHT22;5650;52.700;7.306;2023-04-25T06:03:42;13.00;99.90
11188;DHT22;5650;52.700;7.306;2023-04-25T06:06:13;13.00;99.90
11188;DHT22;5650;52.700;7.306;2023-04-25T06:08:43;13.20;99.90
11188;DHT22;5650;52.700;7.306;2023-04-25T06:11:13;13.30;99.90
11188;DHT22;5650;52.700;7.306;2023-04-25T06:13:46;13.60;99.90
11188;DHT22;5650;52.700;7.306;2023-04-25T06:16:14;13.90;99.70
11188;DHT22;5650;52.700;7.306;2023-04-25T06:18:44;13.80;98.80
11188;DHT22;5650;52.700;7.306;2023-04-25T06:21:15;13.90;99.60
11188;DHT22;5650;52.700;7.306;2023-04-25T06:23:45;14.20;98.80
11188;DHT22;5650;52.700;7.306;2023-04-25T06:26:12;14.20;98.20
11188;DHT22;5650;52.700;7.306;2023-04-25T06:28:39;14.20;98.10
11188;DHT22;5650;52.700;7.306;2023-04-25T06:31:07;13.80;96.80
11188;DHT22;5650;52.700;7.306;2023-04-25T06:33:35;13.80;98.30
11188;DHT22;5650;52.700;7.306;2023-04-25T06:36:03;13.90;98.10
11188;DHT22;5650;52.700;7.306;2023-04-25T06:38:30;14.00;97.60
11188;DHT22;5650;52.700;7.306;2023-04-25T06:41:00;13.60;97.30
11188;DHT22;5650;52.700;7.306;2023-04-25T06:43:35;13.20;97.30
11188;DHT22;5650;52.700;7.306;2023-04-25T06:46:08;13.00;98.90
11188;DHT22;5650;52.700;7.306;2023-04-25T06:48:37;12.60;99.60
11188;DHT22;5650;52.700;7.306;2023-04-25T06:51:04;12.20;99.90
11188;DHT22;5650;52.700;7.306;2023-04-25T06:53:34;11.90;99.90
11188;DHT22;5650;52.700;7.306;2023-04-25T06:56:01;11.50;99.90
11188;DHT22;5650;52.700;7.306;2023-04-25T06:58:32;11.30;99.90
11188;DHT22;5650;52.700;7.306;2023-04-25T07:01:01;11.00;99.90
11188;DHT22;5650;52.700;7.306;2023-04-25T07:03:31;10.50;99.90
11188;DHT22;5650;52.700;7.306;2023-04-25T07:06:06;10.60;99.90
11188;DHT22;5650;52.700;7.306;2023-04-25T07:08:36;11.10;99.90
11188;DHT22;5650;52.700;7.306;2023-04-25T07:11:07;11.70;99.90
11188;DHT22;5650;52.700;7.306;2023-04-25T07:13:34;12.10;99.90
11188;DHT22;5650;52.700;7.306;2023-04-25T07:16:04;12.50;99.90
11188;DHT22;5650;52.700;7.306;2023-04-25T07:18:31;13.00;99.90
11188;DHT22;5650;52.700;7.306;2023-04-25T07:21:01;13.30;99.70
11188;DHT22;5650;52.700;7.306;2023-04-25T07:23:32;13.60;97.30
11188;DHT22;5650;52.700;7.306;2023-04-25T07:26:02;13.90;98.10
11188;DHT22;5650;52.700;7.306;2023-04-25T07:28:34;13.70;95.60
11188;DHT22;5650;52.700;7.306;2023-04-25T07:31:01;13.90;96.90
11188;DHT22;5650;52.700;7.306;2023-04-25T07:33:35;13.80;96.10
11188;DHT22;5650;52.700;7.306;2023-04-25T07:36:08;13.90;95.90
11188;DHT22;5650;52.700;7.306;2023-04-25T07:38:37;14.10;96.90
11188;DHT22;5650;52.700;7.306;2023-04-25T07:41:04;14.50;95.20
11188;DHT22;5650;52.700;7.306;2023-04-25T07:43:31;14.60;95.30
11188;DHT22;5650;52.700;7.306;2023-04-25T07:46:01;14.40;93.40
11188;DHT22;5650;52.700;7.306;2023-04-25T07:48:32;14.10;93.80
11188;DHT22;5650;52.700;7.306;2023-04-25T07:50:59;13.90;94.20
11188;DHT22;5650;52.700;7.306;2023-04-25T07:53:26;13.80;95.10
11188;DHT22;5650;52.700;7.306;2023-04-25T07:55:58;13.60;93.50
11188;DHT22;5650;52.700;7.306;2023-04-25T07:58:34;13.10;94.80
11188;DHT22;5650;52.700;7.306;2023-04-25T08:01:07;12.50;94.90
11188;DHT22;5650;52.700;7.306;2023-04-25T08:03:35;12.40;96.60
11188;DHT22;5650;52.700;7.306;2023-04-25T08:06:02;12.40;96.90
11188;DHT22;5650;52.700;7.306;2023-04-25T08:08:32;12.50;96.70
11188;DHT22;5650;52.700;7.306;2023-04-25T08:11:04;12.40;96.80
11188;DHT22;5650;52.700;7.306;2023-04-25T08:13:31;12.40;97.40
11188;DHT22;5650;52.700;7.306;2023-04-25T08:15:58;12.40;95.60
11188;DHT22;5650;52.700;7.306;2023-04-25T08:18:28;12.50;96.20
11188;DHT22;5650;52.700;7.306;2023-04-25T08:20:56;12.50;95.60
11188;DHT22;5650;52.700;7.306;2023-04-25T08:23:25;12.40;96.30
11188;DHT22;5650;52.700;7.306;2023-04-25T08:25:59;12.50;96.40
11188;DHT22;5650;52.700;7.306;2023-04-25T08:28:28;12.70;96.10
11188;DHT22;5650;52.700;7.306;2023-04-25T08:30:58;12.70;96.50
11188;DHT22;5650;52.700;7.306;2023-04-25T08:33:31;12.60;96.60
11188;DHT22;5650;52.700;7.306;2023-04-25T08:36:05;12.60;97.30
11188;DHT22;5650;52.700;7.306;2023-04-25T08:38:35;12.40;98.00
11188;DHT22;5650;52.700;7.306;2023-04-25T08:41:14;12.20;98.50
11188;DHT22;5650;52.700;7.306;2023-04-25T08:43:44;11.80;99.60
11188;DHT22;5650;52.700;7.306;2023-04-25T08:46:17;11.30;99.70
11188;DHT22;5650;52.700;7.306;2023-04-25T08:48:47;11.00;99.90
11188;DHT22;5650;52.700;7.306;2023-04-25T08:51:21;11.00;99.90
11188;DHT22;5650;52.700;7.306;2023-04-25T08:53:51;10.80;99.90
11188;DHT22;5650;52.700;7.306;2023-04-25T08:56:18;10.70;99.90
11188;DHT22;5650;52.700;7.306;2023-04-25T08:58:50;10.70;99.90
11188;DHT22;5650;52.700;7.306;2023-04-25T09:01:18;10.70;99.90
11188;DHT22;5650;52.700;7.306;2023-04-25T09:03:45;10.80;99.90
11188;DHT22;5650;52.700;7.306;2023-04-25T09:06:25;10.70;99.90
11188;DHT22;5650;52.700;7.306;2023-04-25T09:09:02;10.50;99.90
11188;DHT22;5650;52.700;7.306;2023-04-25T09:11:35;10.30;99.90
11188;DHT22;5650;52.700;7.306;2023-04-25T09:14:14;10.30;99.90
11188;DHT22;5650;52.700;7.306;2023-04-25T09:16:59;10.40;99.90
11188;DHT22;5650;52.700;7.306;2023-04-25T09:19:28;10.40;99.90
11188;DHT22;5650;52.700;7.306;2023-04-25T09:21:57;10.40;99.90
11188;DHT22;5650;52.700;7.306;2023-04-25T09:24:35;10.60;99.90
11188;DHT22;5650;52.700;7.306;2023-04-25T09:27:06;10.70;99.90
11188;DHT22;5650;52.700;7.306;2023-04-25T09:29:36;11.10;99.90
11188;DHT22;5650;52.700;7.306;2023-04-25T09:32:18;11.30;99.90
11188;DHT22;5650;52.700;7.306;2023-04-25T09:34:48;11.30;99.90
11188;DHT22;5650;52.700;7.306;2023-04-25T09:37:20;11.00;99.90
11188;DHT22;5650;52.700;7.306;2023-04-25T09:39:48;10.90;99.90
11188;DHT22;5650;52.700;7.306;2023-04-25T09:42:21;10.90;99.90
11188;DHT22;5650;52.700;7.306;2023-04-25T09:44:52;11.00;99.90
11188;DHT22;5650;52.700;7.306;2023-04-25T09:47:20;11.00;99.90
11188;DHT22;5650;52.700;7.306;2023-04-25T09:49:53;11.20;99.90
11188;DHT22;5650;52.700;7.306;2023-04-25T09:52:21;11.40;99.90
11188;DHT22;5650;52.700;7.306;2023-04-25T09:54:51;11.70;99.90
11188;DHT22;5650;52.700;7.306;2023-04-25T09:57:20;11.80;99.90
11188;DHT22;5650;52.700;7.306;2023-04-25T09:59:52;12.00;99.90
11188;DHT22;5650;52.700;7.306;2023-04-25T10:02:22;11.90;99.10
11188;DHT22;5650;52.700;7.306;2023-04-25T10:04:57;11.90;99.90
11188;DHT22;5650;52.700;7.306;2023-04-25T10:07:30;12.10;99.90
11188;DHT22;5650;52.700;7.306;2023-04-25T10:10:05;12.40;99.90
11188;DHT22;5650;52.700;7.306;2023-04-25T10:12:33;12.70;99.90
11188;DHT22;5650;52.700;7.306;2023-04-25T10:15:03;12.60;99.90
11188;DHT22;5650;52.700;7.306;2023-04-25T10:17:31;12.20;99.10
11188;DHT22;5650;52.700;7.306;2023-04-25T10:20:02;11.60;98.40
11188;DHT22;5650;52.700;7.306;2023-04-25T10:22:34;11.00;98.80
11188;DHT22;5650;52.700;7.306;2023-04-25T10:25:07;10.70;99.90
11188;DHT22;5650;52.700;7.306;2023-04-25T10:27:38;10.70;99.90
11188;DHT22;5650;52.700;7.306;2023-04-25T10:30:09;10.60;99.90
11188;DHT22;5650;52.700;7.306;2023-04-25T10:32:41;10.70;99.90
11188;DHT22;5650;52.700;7.306;2023-04-25T10:35:13;10.90;99.90
11188;DHT22;5650;52.700;7.306;2023-04-25T10:37:59;10.90;99.90
11188;DHT22;5650;52.700;7.306;2023-04-25T10:40:27;11.20;99.90
11188;DHT22;5650;52.700;7.306;2023-04-25T10:45:53;11.30;99.90
11188;DHT22;5650;52.700;7.306;2023-04-25T10:48:30;11.50;99.90
11188;DHT22;5650;52.700;7.306;2023-04-25T10:51:07;11.20;97.20
11188;DHT22;5650;52.700;7.306;2023-04-25T10:53:38;11.00;96.70
11188;DHT22;5650;52.700;7.306;2023-04-25T10:56:10;11.10;97.70
11188;DHT22;5650;52.700;7.306;2023-04-25T10:58:42;11.20;98.70
11188;DHT22;5650;52.700;7.306;2023-04-25T11:01:14;11.40;99.10
11188;DHT22;5650;52.700;7.306;2023-04-25T11:03:42;11.60;96.70
11188;DHT22;5650;52.700;7.306;2023-04-25T11:06:17;11.70;96.90
11188;DHT22;5650;52.700;7.306;2023-04-25T11:08:55;11.90;97.10
11188;DHT22;5650;52.700;7.306;2023-04-25T11:11:22;12.20;96.90
11188;DHT22;5650;52.700;7.306;2023-04-25T11:13:49;12.40;95.80
11188;DHT22;5650;52.700;7.306;2023-04-25T11:16:18;12.30;96.10
11188;DHT22;5650;52.700;7.306;2023-04-25T11:18:45;11.70;97.80
11188;DHT22;5650;52.700;7.306;2023-04-25T11:21:16;11.20;98.30
11188;DHT22;5650;52.700;7.306;2023-04-25T11:23:44;10.80;99.30
11188;DHT22;5650;52.700;7.306;2023-04-25T11:26:13;10.50;99.90
11188;DHT22;5650;52.700;7.306;2023-04-25T11:28:45;10.50;99.90
11188;DHT22;5650;52.700;7.306;2023-04-25T11:31:12;10.00;99.90
11188;DHT22;5650;52.700;7.306;2023-04-25T11:33:41;9.80;99.90
11188;DHT22;5650;52.700;7.306;2023-04-25T11:36:13;9.70;99.90
11188;DHT22;5650;52.700;7.306;2023-04-25T11:38:40;9.50;99.90
11188;DHT22;5650;52.700;7.306;2023-04-25T11:41:07;9.50;99.90
11188;DHT22;5650;52.700;7.306;2023-04-25T11:43:34;9.60;99.90
11188;DHT22;5650;52.700;7.306;2023-04-25T11:46:06;9.80;99.90
11188;DHT22;5650;52.700;7.306;2023-04-25T11:48:38;10.10;99.90
11188;DHT22;5650;52.700;7.306;2023-04-25T11:51:07;10.40;99.90
11188;DHT22;5650;52.700;7.306;2023-04-25T11:53:41;10.60;99.90
11188;DHT22;5650;52.700;7.306;2023-04-25T11:56:12;10.90;99.90
11188;DHT22;5650;52.700;7.306;2023-04-25T11:58:58;11.20;99.90
11188;DHT22;5650;52.700;7.306;2023-04-25T12:01:29;11.40;99.90
11188;DHT22;5650;52.700;7.306;2023-04-25T12:04:10;11.60;99.90
11188;DHT22;5650;52.700;7.306;2023-04-25T12:06:43;11.70;99.90
11188;DHT22;5650;52.700;7.306;2023-04-25T12:09:15;11.60;99.90
11188;DHT22;5650;52.700;7.306;2023-04-25T12:11:47;11.60;99.90
11188;DHT22;5650;52.700;7.306;2023-04-25T12:14:21;11.60;99.90
11188;DHT22;5650;52.700;7.306;2023-04-25T12:16:50;11.50;99.90
11188;DHT22;5650;52.700;7.306;2023-04-25T12:19:20;11.20;99.90
11188;DHT22;5650;52.700;7.306;2023-04-25T12:21:50;10.90;99.90
11188;DHT22;5650;52.700;7.306;2023-04-25T12:24:18;10.20;99.90
11188;DHT22;5650;52.700;7.306;2023-04-25T12:27:02;9.70;99.90
11188;DHT22;5650;52.700;7.306;2023-04-25T12:29:33;9.40;99.90
11188;DHT22;5650;52.700;7.306;2023-04-25T12:32:04;9.40;99.90
11188;DHT22;5650;52.700;7.306;2023-04-25T12:34:32;9.50;99.90
11188;DHT22;5650;52.700;7.306;2023-04-25T12:37:08;9.50;99.90
11188;DHT22;5650;52.700;7.306;2023-04-25T12:39:38;9.60;99.90
11188;DHT22;5650;52.700;7.306;2023-04-25T12:42:06;9.60;99.90
11188;DHT22;5650;52.700;7.306;2023-04-25T12:44:36;9.50;99.90
11188;DHT22;5650;52.700;7.306;2023-04-25T12:47:12;9.60;99.90
11188;DHT22;5650;52.700;7.306;2023-04-25T12:49:45;9.50;99.90
11188;DHT22;5650;52.700;7.306;2023-04-25T12:52:16;9.50;99.90
11188;DHT22;5650;52.700;7.306;2023-04-25T12:54:43;9.60;99.90
11188;DHT22;5650;52.700;7.306;2023-04-25T12:57:13;9.70;99.90
11188;DHT22;5650;52.700;7.306;2023-04-25T12:59:42;9.90;99.90
11188;DHT22;5650;52.700;7.306;2023-04-25T13:02:16;10.00;99.90
11188;DHT22;5650;52.700;7.306;2023-04-25T13:04:43;10.00;99.90
11188;DHT22;5650;52.700;7.306;2023-04-25T13:07:18;10.00;99.90
11188;DHT22;5650;52.700;7.306;2023-04-25T13:09:45;10.00;99.90
11188;DHT22;5650;52.700;7.306;2023-04-25T13:12:15;10.10;99.90
11188;DHT22;5650;52.700;7.306;2023-04-25T13:14:45;10.30;99.90
11188;DHT22;5650;52.700;7.306;2023-04-25T13:17:12;10.40;99.90
11188;DHT22;5650;52.700;7.306;2023-04-25T13:19:45;10.30;99.90
11188;DHT22;5650;52.700;7.306;2023-04-25T13:22:16;10.30;99.90
11188;DHT22;5650;52.700;7.306;2023-04-25T13:24:48;10.40;99.90
11188;DHT22;5650;52.700;7.306;2023-04-25T13:27:21;10.40;99.90
11188;DHT22;5650;52.700;7.306;2023-04-25T13:29:48;10.40;99.90
11188;DHT22;5650;52.700;7.306;2023-04-25T13:32:15;10.00;99.90
11188;DHT22;5650;52.700;7.306;2023-04-25T13:34:42;9.90;99.90
11188;DHT22;5650;52.700;7.306;2023-04-25T13:37:14;9.50;99.90
11188;DHT22;5650;52.700;7.306;2023-04-25T13:39:47;9.20;99.90
11188;DHT22;5650;52.700;7.306;2023-04-25T13:42:15;9.00;99.90
11188;DHT22;5650;52.700;7.306;2023-04-25T13:44:44;9.00;99.90
11188;DHT22;5650;52.700;7.306;2023-04-25T13:47:14;9.10;99.90
11188;DHT22;5650;52.700;7.306;2023-04-25T13:49:41;9.20;99.90
11188;DHT22;5650;52.700;7.306;2023-04-25T13:52:15;9.30;99.90
11188;DHT22;5650;52.700;7.306;2023-04-25T13:54:47;9.40;99.90
11188;DHT22;5650;52.700;7.306;2023-04-25T13:57:14;9.60;99.90
11188;DHT22;5650;52.700;7.306;2023-04-25T13:59:41;9.90;99.90
11188;DHT22;5650;52.700;7.306;2023-04-25T14:02:11;10.10;99.90
11188;DHT22;5650;52.700;7.306;2023-04-25T14:04:38;10.30;99.90
11188;DHT22;5650;52.700;7.306;2023-04-25T14:07:17;10.50;99.90
11188;DHT22;5650;52.700;7.306;2023-04-25T14:09:48;10.40;99.90
11188;DHT22;5650;52.700;7.306;2023-04-25T14:12:16;10.50;99.90
11188;DHT22;5650;52.700;7.306;2023-04-25T14:14:43;10.50;99.90
11188;DHT22;5650;52.700;7.306;2023-04-25T14:17:13;10.60;99.90
11188;DHT22;5650;52.700;7.306;2023-04-25T14:19:51;10.80;99.90
11188;DHT22;5650;52.700;7.306;2023-04-25T14:22:18;10.80;99.90
11188;DHT22;5650;52.700;7.306;2023-04-25T14:24:46;10.80;99.90
11188;DHT22;5650;52.700;7.306;2023-04-25T14:27:14;10.60;99.90
11188;DHT22;5650;52.700;7.306;2023-04-25T14:29:41;10.50;99.90
11188;DHT22;5650;52.700;7.306;2023-04-25T14:32:14;10.50;99.90
11188;DHT22;5650;52.700;7.306;2023-04-25T14:34:41;10.40;99.90
11188;DHT22;5650;52.700;7.306;2023-04-25T14:37:08;10.30;99.90
11188;DHT22;5650;52.700;7.306;2023-04-25T14:39:43;10.30;99.90
11188;DHT22;5650;52.700;7.306;2023-04-25T14:42:17;10.40;99.90
11188;DHT22;5650;52.700;7.306;2023-04-25T14:44:44;10.60;99.90
11188;DHT22;5650;52.700;7.306;2023-04-25T14:47:15;10.60;99.90
11188;DHT22;5650;52.700;7.306;2023-04-25T14:49:45;10.60;99.90
11188;DHT22;5650;52.700;7.306;2023-04-25T14:52:25;10.40;99.90
11188;DHT22;5650;52.700;7.306;2023-04-25T14:54:52;10.20;99.90
11188;DHT22;5650;52.700;7.306;2023-04-25T14:57:28;10.20;99.90
11188;DHT22;5650;52.700;7.306;2023-04-25T15:00:02;10.00;99.90
11188;DHT22;5650;52.700;7.306;2023-04-25T15:02:37;9.90;99.90
11188;DHT22;5650;52.700;7.306;2023-04-25T15:05:07;9.90;99.90
11188;DHT22;5650;52.700;7.306;2023-04-25T15:07:35;9.90;99.90
11188;DHT22;5650;52.700;7.306;2023-04-25T15:10:03;10.00;99.90
11188;DHT22;5650;52.700;7.306;2023-04-25T15:12:32;10.10;99.90
11188;DHT22;5650;52.700;7.306;2023-04-25T15:15:03;10.10;99.90
11188;DHT22;5650;52.700;7.306;2023-04-25T15:17:31;10.30;99.90
11188;DHT22;5650;52.700;7.306;2023-04-25T15:20:01;10.30;99.90
11188;DHT22;5650;52.700;7.306;2023-04-25T15:22:29;10.30;99.90
11188;DHT22;5650;52.700;7.306;2023-04-25T15:25:03;10.20;99.90
11188;DHT22;5650;52.700;7.306;2023-04-25T15:27:33;10.10;99.90
11188;DHT22;5650;52.700;7.306;2023-04-25T15:30:04;9.90;99.90
11188;DHT22;5650;52.700;7.306;2023-04-25T15:32:35;9.80;99.90
11188;DHT22;5650;52.700;7.306;2023-04-25T15:35:05;9.60;99.90
11188;DHT22;5650;52.700;7.306;2023-04-25T15:37:42;9.50;99.90
11188;DHT22;5650;52.700;7.306;2023-04-25T15:40:11;9.30;99.90
11188;DHT22;5650;52.700;7.306;2023-04-25T15:42:44;9.30;99.90
11188;DHT22;5650;52.700;7.306;2023-04-25T15:45:15;9.30;99.90
11188;DHT22;5650;52.700;7.306;2023-04-25T15:47:49;9.40;99.90
11188;DHT22;5650;52.700;7.306;2023-04-25T15:50:18;9.50;99.90
11188;DHT22;5650;52.700;7.306;2023-04-25T15:52:49;9.70;99.90
11188;DHT22;5650;52.700;7.306;2023-04-25T15:55:22;9.80;99.90
11188;DHT22;5650;52.700;7.306;2023-04-25T15:58:05;10.00;99.90
11188;DHT22;5650;52.700;7.306;2023-04-25T16:00:32;10.10;99.90
11188;DHT22;5650;52.700;7.306;2023-04-25T16:03:08;10.20;99.90
11188;DHT22;5650;52.700;7.306;2023-04-25T16:05:40;10.40;99.90
11188;DHT22;5650;52.700;7.306;2023-04-25T16:08:08;10.30;99.90
11188;DHT22;5650;52.700;7.306;2023-04-25T16:10:35;10.20;99.90
11188;DHT22;5650;52.700;7.306;2023-04-25T16:13:03;10.20;99.90